Time;durP1;ratioP1;P1;durP2;ratioP2;P2;SDS_P1;SDS_P2;PMS_P1;PMS_P2;Temp;Humidity;BMP_temperature;BMP_pressure;BME280_temperature;BME280_humidity;BME280_pressure;Samples;Min_cycle;Max_cycle;Signal;HPM_P1;HPM_P2
2022/04/13 00:01:16;;;;;;;3.47;2.40;;;13.60;93.80;;;;;;5032550;28;20232;-68
2022/04/13 00:03:43;;;;;;;2.77;2.57;;;13.60;93.80;;;;;;5033212;28;20204;-68
2022/04/13 00:06:09;;;;;;;5.43;2.13;;;13.50;94.00;;;;;;5033875;28;20192;-68
2022/04/13 00:08:35;;;;;;;5.13;2.80;;;13.40;94.20;;;;;;5033886;28;20419;-67
2022/04/13 00:11:00;;;;;;;3.27;3.07;;;13.40;94.60;;;;;;5033712;28;20999;-67
2022/04/13 00:13:26;;;;;;;3.73;2.50;;;13.30;94.80;;;;;;5033363;28;20199;-67
2022/04/13 00:15:52;;;;;;;2.13;1.97;;;13.20;94.90;;;;;;5033150;28;20209;-67
2022/04/13 00:18:18;;;;;;;3.07;2.80;;;13.20;95.20;;;;;;5033615;28;20450;-67
2022/04/13 00:20:45;;;;;;;2.10;2.00;;;13.10;95.40;;;;;;5033574;28;20164;-69
2022/04/13 00:23:11;;;;;;;1.93;1.83;;;13.10;95.70;;;;;;5033267;28;20177;-67
2022/04/13 00:25:39;;;;;;;3.07;2.77;;;13.00;95.70;;;;;;5033399;28;20436;-66
2022/04/13 00:28:06;;;;;;;4.30;3.10;;;13.10;95.80;;;;;;5033522;28;20447;-67
2022/04/13 00:30:32;;;;;;;2.40;2.20;;;12.90;96.10;;;;;;5033161;28;20249;-68
2022/04/13 00:32:57;;;;;;;2.70;2.50;;;12.90;96.20;;;;;;5033190;28;20212;-68
2022/04/13 00:35:23;;;;;;;2.20;2.10;;;13.00;96.30;;;;;;5031870;28;20438;-69
2022/04/13 00:37:49;;;;;;;3.23;2.93;;;12.90;96.40;;;;;;5032473;28;20227;-70
2022/04/13 00:40:15;;;;;;;3.17;2.90;;;12.90;96.60;;;;;;5032996;28;20626;-68
2022/04/13 00:42:41;;;;;;;2.47;2.27;;;12.80;96.90;;;;;;5033409;28;20167;-68
2022/04/13 00:45:07;;;;;;;2.60;2.40;;;12.80;97.10;;;;;;5032778;28;20421;-68
2022/04/13 00:47:39;;;;;;;2.43;2.33;;;12.70;97.40;;;;;;5033179;28;20174;-68
2022/04/13 00:50:05;;;;;;;3.08;2.78;;;12.60;97.90;;;;;;5033408;28;20402;-68
2022/04/13 00:52:35;;;;;;;2.90;2.05;;;12.60;98.00;;;;;;5033297;28;20182;-68
2022/04/13 00:55:02;;;;;;;2.80;2.60;;;12.60;98.20;;;;;;5032540;28;20228;-68
2022/04/13 00:57:31;;;;;;;2.60;2.40;;;12.50;98.80;;;;;;5033092;28;20462;-68
2022/04/13 00:59:59;;;;;;;2.13;1.75;;;12.50;98.70;;;;;;5032980;28;20186;-68
2022/04/13 01:02:27;;;;;;;4.07;2.50;;;12.40;99.10;;;;;;5033373;28;20545;-68
2022/04/13 01:04:54;;;;;;;1.60;1.50;;;12.40;99.50;;;;;;5032658;28;20256;-67
2022/04/13 01:07:22;;;;;;;2.10;2.00;;;12.40;99.70;;;;;;5033330;28;20174;-66
2022/04/13 01:09:49;;;;;;;2.25;2.15;;;12.30;99.90;;;;;;5032887;28;20174;-67
2022/04/13 01:12:15;;;;;;;4.60;2.15;;;12.30;99.90;;;;;;5032828;28;20185;-67
2022/04/13 01:14:41;;;;;;;2.30;2.20;;;12.20;99.90;;;;;;5031315;28;20529;-68
2022/04/13 01:17:07;;;;;;;4.40;2.30;;;12.20;99.90;;;;;;5033044;28;20779;-67
2022/04/13 01:19:32;;;;;;;2.63;2.13;;;12.20;99.90;;;;;;5033132;28;20162;-68
2022/04/13 01:22:03;;;;;;;3.20;2.53;;;12.20;99.90;;;;;;5033076;28;20197;-67
2022/04/13 01:24:29;;;;;;;1.70;1.60;;;12.10;99.90;;;;;;5031674;28;20528;-68
2022/04/13 01:26:56;;;;;;;2.55;2.38;;;12.10;99.90;;;;;;5033129;28;20167;-67
2022/04/13 01:29:21;;;;;;;2.22;2.13;;;12.00;99.90;;;;;;5032954;28;20645;-67
2022/04/13 01:31:49;;;;;;;2.00;1.90;;;12.00;99.90;;;;;;5033059;28;20167;-68
2022/04/13 01:34:15;;;;;;;2.00;1.90;;;11.90;99.90;;;;;;5032528;28;20193;-68
2022/04/13 01:36:41;;;;;;;2.87;2.30;;;11.90;99.90;;;;;;5032967;28;20225;-68
2022/04/13 01:39:07;;;;;;;2.03;1.93;;;11.90;99.90;;;;;;5032520;28;20202;-69
2022/04/13 01:41:33;;;;;;;2.78;2.50;;;11.80;99.90;;;;;;5031474;28;20971;-67
2022/04/13 01:43:59;;;;;;;2.20;1.80;;;11.80;99.90;;;;;;5032363;28;20172;-67
2022/04/13 01:46:25;;;;;;;4.43;1.93;;;11.70;99.90;;;;;;5032774;28;20516;-67
2022/04/13 01:48:50;;;;;;;1.80;1.70;;;11.70;99.90;;;;;;5033623;28;20236;-68
2022/04/13 01:51:20;;;;;;;2.73;2.30;;;11.70;99.90;;;;;;5036482;28;20175;-69
2022/04/13 01:53:50;;;;;;;1.92;1.83;;;11.60;99.90;;;;;;5035852;28;20185;-68
2022/04/13 01:56:16;;;;;;;3.60;1.70;;;11.60;99.90;;;;;;5036261;28;20194;-69
2022/04/13 01:58:43;;;;;;;3.05;2.20;;;11.60;99.90;;;;;;5036247;28;20352;-69
2022/04/13 02:01:08;;;;;;;2.17;2.08;;;11.60;99.90;;;;;;5036341;28;20158;-68
2022/04/13 02:03:34;;;;;;;2.50;2.30;;;11.50;99.90;;;;;;5035625;28;20192;-67
2022/04/13 02:06:00;;;;;;;4.63;2.37;;;11.40;99.90;;;;;;5036113;28;20230;-68
2022/04/13 02:08:26;;;;;;;1.97;1.87;;;11.30;99.90;;;;;;5035861;28;20270;-69
2022/04/13 02:10:52;;;;;;;1.77;1.67;;;11.20;99.90;;;;;;5036199;28;20185;-69
2022/04/13 02:13:21;;;;;;;6.33;1.87;;;11.20;99.90;;;;;;5035641;28;20536;-69
2022/04/13 02:15:48;;;;;;;2.85;2.22;;;11.10;99.90;;;;;;5035419;28;20244;-67
2022/04/13 02:18:14;;;;;;;1.95;1.85;;;11.10;99.90;;;;;;5034497;28;20209;-67
2022/04/13 02:20:40;;;;;;;2.53;2.33;;;11.00;99.90;;;;;;5034604;28;20174;-67
2022/04/13 02:23:06;;;;;;;2.20;2.00;;;11.00;99.90;;;;;;5035321;28;20173;-68
2022/04/13 02:25:35;;;;;;;3.87;2.27;;;11.00;99.90;;;;;;5035897;28;20421;-69
2022/04/13 02:28:05;;;;;;;1.90;1.77;;;10.90;99.90;;;;;;5035714;28;20502;-68
2022/04/13 02:30:31;;;;;;;2.30;2.10;;;10.90;99.90;;;;;;5035472;28;20257;-68
2022/04/13 02:32:57;;;;;;;2.92;2.72;;;10.90;99.90;;;;;;5035675;28;20170;-69
2022/04/13 02:35:23;;;;;;;2.10;2.00;;;10.90;99.90;;;;;;5033915;28;20284;-68
2022/04/13 02:37:49;;;;;;;2.40;2.30;;;10.80;99.90;;;;;;5035325;28;20272;-68
2022/04/13 02:40:14;;;;;;;3.13;1.60;;;10.80;99.90;;;;;;5035589;28;20167;-66
2022/04/13 02:42:40;;;;;;;1.33;1.23;;;10.80;99.90;;;;;;5035635;28;20249;-66
2022/04/13 02:45:07;;;;;;;2.53;2.23;;;10.80;99.90;;;;;;5034558;28;20209;-68
2022/04/13 02:47:36;;;;;;;3.08;2.78;;;10.90;99.90;;;;;;5035338;28;20456;-67
2022/04/13 02:50:06;;;;;;;2.03;1.92;;;10.80;99.90;;;;;;5035571;28;20163;-67
2022/04/13 02:52:32;;;;;;;3.67;3.33;;;10.90;99.90;;;;;;5035421;28;20640;-67
2022/04/13 02:54:58;;;;;;;2.42;2.33;;;10.90;99.90;;;;;;5034888;28;20197;-67
2022/04/13 02:57:25;;;;;;;2.13;1.90;;;10.90;99.90;;;;;;5035227;28;20182;-67
2022/04/13 02:59:51;;;;;;;2.85;2.10;;;10.90;99.90;;;;;;5034504;28;20726;-67
2022/04/13 03:02:17;;;;;;;2.63;2.00;;;10.90;99.90;;;;;;5034597;28;20186;-68
2022/04/13 03:04:46;;;;;;;1.75;1.65;;;10.90;99.90;;;;;;5034362;28;20208;-67
2022/04/13 03:07:14;;;;;;;1.67;1.58;;;10.90;99.90;;;;;;5033795;28;20198;-69
2022/04/13 03:09:40;;;;;;;2.58;2.38;;;10.90;99.90;;;;;;5035166;28;20584;-67
2022/04/13 03:12:07;;;;;;;2.20;2.10;;;10.90;99.90;;;;;;5035191;28;20200;-67
2022/04/13 03:14:33;;;;;;;2.00;1.90;;;10.90;99.90;;;;;;5033960;28;20252;-68
2022/04/13 03:16:59;;;;;;;4.63;2.58;;;10.80;99.90;;;;;;5034526;28;20166;-67
2022/04/13 03:19:25;;;;;;;2.00;1.90;;;10.70;99.90;;;;;;5034909;28;20166;-66
2022/04/13 03:21:53;;;;;;;2.17;2.07;;;10.60;99.90;;;;;;5034725;28;20401;-67
2022/04/13 03:24:19;;;;;;;2.63;2.42;;;10.50;99.90;;;;;;5034393;28;20174;-67
2022/04/13 03:26:45;;;;;;;4.32;2.95;;;10.40;99.90;;;;;;5034646;28;20189;-68
2022/04/13 03:29:10;;;;;;;11.83;3.50;;;10.30;99.90;;;;;;5034097;28;20676;-68
2022/04/13 03:31:36;;;;;;;2.53;2.33;;;10.30;99.90;;;;;;5034321;28;20166;-67
2022/04/13 03:34:02;;;;;;;2.47;2.27;;;10.30;99.90;;;;;;5033747;28;20185;-67
2022/04/13 03:36:28;;;;;;;1.67;1.60;;;10.20;99.90;;;;;;5034210;28;20194;-67
2022/04/13 03:38:54;;;;;;;2.30;2.07;;;10.20;99.90;;;;;;5034386;28;20180;-67
2022/04/13 03:41:20;;;;;;;2.22;2.03;;;10.20;99.90;;;;;;5034229;28;20181;-69
2022/04/13 03:43:45;;;;;;;2.37;1.67;;;10.10;99.90;;;;;;5033943;28;20257;-66
2022/04/13 03:46:11;;;;;;;2.40;2.30;;;10.00;99.90;;;;;;5033596;28;20256;-66
2022/04/13 03:48:37;;;;;;;1.97;1.87;;;10.00;99.90;;;;;;5033662;28;20752;-66
2022/04/13 03:51:03;;;;;;;2.50;2.30;;;10.00;99.90;;;;;;5034284;28;20482;-68
2022/04/13 03:53:28;;;;;;;1.67;1.57;;;10.00;99.90;;;;;;5033664;28;20174;-68
2022/04/13 03:55:54;;;;;;;2.30;2.10;;;10.00;99.90;;;;;;5033969;28;20189;-68
2022/04/13 03:58:20;;;;;;;1.70;1.60;;;10.00;99.90;;;;;;5034209;28;20249;-68
2022/04/13 04:00:46;;;;;;;1.63;1.53;;;9.90;99.90;;;;;;5033880;28;20266;-68
2022/04/13 04:03:12;;;;;;;1.23;1.13;;;9.90;99.90;;;;;;5033607;28;21004;-68
2022/04/13 04:05:37;;;;;;;2.33;2.07;;;9.90;99.90;;;;;;5033964;28;20333;-68
2022/04/13 04:08:04;;;;;;;1.50;1.40;;;9.90;99.90;;;;;;5033522;28;20811;-67
2022/04/13 04:10:30;;;;;;;1.77;1.67;;;9.90;99.90;;;;;;5033652;28;20400;-68
2022/04/13 04:12:55;;;;;;;1.87;1.77;;;9.90;99.90;;;;;;5033315;28;20177;-68
2022/04/13 04:15:21;;;;;;;2.53;1.50;;;9.80;99.90;;;;;;5031238;28;20553;-68
2022/04/13 04:17:46;;;;;;;1.90;1.60;;;9.80;99.90;;;;;;5033308;28;20166;-68
2022/04/13 04:20:12;;;;;;;2.50;1.60;;;9.80;99.90;;;;;;5033328;28;20182;-67
2022/04/13 04:22:38;;;;;;;1.70;1.60;;;9.70;99.90;;;;;;5033539;28;20168;-68
2022/04/13 04:25:07;;;;;;;2.37;2.23;;;9.70;99.90;;;;;;5032828;28;20433;-67
2022/04/13 04:27:33;;;;;;;2.10;1.98;;;9.60;99.90;;;;;;5033298;28;20484;-69
2022/04/13 04:29:58;;;;;;;1.37;1.27;;;9.60;99.90;;;;;;5032857;28;20305;-68
2022/04/13 04:32:24;;;;;;;1.50;1.40;;;9.60;99.90;;;;;;5033323;28;20170;-66
2022/04/13 04:34:50;;;;;;;2.63;1.87;;;9.60;99.90;;;;;;5032664;28;20181;-66
2022/04/13 04:37:15;;;;;;;1.63;1.53;;;9.60;99.90;;;;;;5033169;28;20404;-66
2022/04/13 04:39:41;;;;;;;2.40;2.20;;;9.70;99.90;;;;;;5033160;28;20185;-67
2022/04/13 04:42:07;;;;;;;1.50;1.40;;;9.70;99.90;;;;;;5033176;28;20645;-66
2022/04/13 04:44:33;;;;;;;1.77;1.67;;;9.70;99.90;;;;;;5031620;28;20663;-69
2022/04/13 04:46:58;;;;;;;1.77;1.60;;;9.70;99.90;;;;;;5032884;28;20413;-69
2022/04/13 04:49:24;;;;;;;1.20;1.20;;;9.70;99.90;;;;;;5033166;28;20655;-68
2022/04/13 04:51:49;;;;;;;1.97;1.77;;;9.70;99.90;;;;;;5033135;28;20253;-68
2022/04/13 04:54:15;;;;;;;1.80;1.70;;;9.70;99.90;;;;;;5032595;28;20636;-68
2022/04/13 04:56:41;;;;;;;1.93;1.83;;;9.70;99.90;;;;;;5033096;28;20213;-66
2022/04/13 04:59:06;;;;;;;2.90;2.07;;;9.70;99.90;;;;;;5032406;28;20715;-68
2022/04/13 05:01:32;;;;;;;5.37;1.57;;;9.70;99.90;;;;;;5024852;28;20178;-67
2022/04/13 05:03:58;;;;;;;2.40;2.20;;;9.70;99.90;;;;;;4995188;28;20194;-67
2022/04/13 05:06:28;;;;;;;1.87;1.77;;;9.80;99.90;;;;;;5020208;28;20190;-66
2022/04/13 05:08:57;;;;;;;2.40;2.30;;;9.80;99.90;;;;;;5032618;28;20529;-68
2022/04/13 05:11:23;;;;;;;2.33;1.83;;;9.90;99.90;;;;;;5032364;28;20174;-68
2022/04/13 05:13:49;;;;;;;2.13;1.57;;;10.00;99.90;;;;;;5032443;28;20265;-67
2022/04/13 05:16:16;;;;;;;2.10;2.00;;;10.10;99.90;;;;;;5032543;28;20421;-68
2022/04/13 05:18:43;;;;;;;2.83;2.20;;;10.20;99.90;;;;;;5032965;28;20268;-68
2022/04/13 05:21:09;;;;;;;2.35;2.15;;;10.30;99.90;;;;;;5032693;28;20200;-68
2022/04/13 05:23:36;;;;;;;2.13;1.92;;;10.40;99.90;;;;;;5032934;28;20237;-68
2022/04/13 05:26:02;;;;;;;2.28;2.17;;;10.50;99.90;;;;;;5036851;28;20190;-67
2022/04/13 05:28:29;;;;;;;2.55;2.35;;;10.70;99.90;;;;;;5034995;28;20190;-65
2022/04/13 05:30:55;;;;;;;5.28;2.70;;;10.80;99.90;;;;;;5033617;28;20178;-67
2022/04/13 05:33:21;;;;;;;3.90;2.13;;;11.00;99.90;;;;;;5036313;28;20269;-67
2022/04/13 05:35:47;;;;;;;2.17;1.90;;;11.20;99.90;;;;;;5036280;28;20266;-66
2022/04/13 05:38:12;;;;;;;3.33;2.20;;;11.30;99.90;;;;;;5036253;28;20171;-67
2022/04/13 05:40:38;;;;;;;2.10;2.00;;;11.50;99.90;;;;;;5036200;28;20656;-66
2022/04/13 05:43:04;;;;;;;2.10;2.00;;;11.80;99.90;;;;;;5036132;28;20634;-68
2022/04/13 05:45:30;;;;;;;2.50;2.30;;;12.00;99.90;;;;;;5035927;28;20191;-67
2022/04/13 05:47:56;;;;;;;4.03;2.33;;;12.20;99.90;;;;;;5034551;28;20203;-66
2022/04/13 05:50:24;;;;;;;2.40;1.83;;;12.40;99.90;;;;;;5036324;28;20263;-66
2022/04/13 05:52:49;;;;;;;2.13;2.00;;;12.60;99.90;;;;;;5035984;28;20422;-66
2022/04/13 05:55:15;;;;;;;3.33;3.07;;;12.80;99.90;;;;;;5035489;28;20434;-69
2022/04/13 05:57:41;;;;;;;4.70;2.87;;;13.10;99.90;;;;;;5035350;28;20208;-69
2022/04/13 06:00:10;;;;;;;2.87;2.67;;;13.40;99.90;;;;;;5036025;28;20188;-67
2022/04/13 06:02:37;;;;;;;2.93;2.70;;;13.50;99.90;;;;;;5035810;28;20477;-65
2022/04/13 06:05:06;;;;;;;3.20;2.80;;;13.80;99.90;;;;;;5035661;28;20474;-67
2022/04/13 06:07:32;;;;;;;3.10;2.23;;;13.90;99.90;;;;;;5036011;28;20801;-67
2022/04/13 06:10:05;;;;;;;2.47;2.23;;;14.20;99.90;;;;;;5036102;28;20500;-66
2022/04/13 06:12:31;;;;;;;2.97;1.80;;;14.40;99.90;;;;;;5030556;28;20436;-67
2022/04/13 06:15:04;;;;;;;2.47;2.27;;;14.50;99.90;;;;;;5035454;28;20934;-67
2022/04/13 06:17:30;;;;;;;6.07;3.17;;;14.70;99.90;;;;;;5034764;28;20470;-68
2022/04/13 06:19:56;;;;;;;2.50;2.30;;;14.80;99.50;;;;;;5026634;28;20409;-67
2022/04/13 06:22:21;;;;;;;2.40;2.30;;;14.90;99.50;;;;;;5035132;28;20213;-67
2022/04/13 06:24:51;;;;;;;2.43;2.23;;;14.90;99.50;;;;;;5035507;28;20190;-67
2022/04/13 06:27:18;;;;;;;2.90;2.70;;;15.00;99.40;;;;;;5035853;28;20553;-66
2022/04/13 06:29:44;;;;;;;4.13;3.80;;;15.10;99.30;;;;;;5035398;28;20920;-67
2022/04/13 06:32:10;;;;;;;3.63;2.47;;;15.20;99.30;;;;;;5035741;28;20549;-68
2022/04/13 06:34:37;;;;;;;2.03;1.93;;;15.80;98.40;;;;;;5033587;28;20175;-68
2022/04/13 06:37:03;;;;;;;4.13;2.63;;;15.90;98.60;;;;;;5035151;28;20423;-68
2022/04/13 06:39:28;;;;;;;2.90;2.70;;;16.30;97.90;;;;;;5035387;28;20711;-69
2022/04/13 06:41:54;;;;;;;3.60;3.30;;;16.70;97.40;;;;;;5035422;28;20763;-68
2022/04/13 06:44:19;;;;;;;9.07;2.93;;;16.90;96.40;;;;;;5034682;28;20181;-68
2022/04/13 06:46:45;;;;;;;2.60;2.40;;;17.00;96.40;;;;;;5035100;28;20734;-69
2022/04/13 06:49:11;;;;;;;2.80;2.60;;;17.20;96.20;;;;;;5035165;28;20206;-69
2022/04/13 06:51:36;;;;;;;4.50;3.43;;;17.40;95.40;;;;;;5034829;28;20629;-68
2022/04/13 06:54:02;;;;;;;3.93;2.93;;;17.50;95.60;;;;;;5034580;28;20170;-69
2022/04/13 06:56:39;;;;;;;4.67;3.23;;;17.70;95.50;;;;;;5035045;28;20190;-69
2022/04/13 06:59:06;;;;;;;3.33;3.00;;;18.20;94.80;;;;;;5035079;28;20178;-69
2022/04/13 07:01:32;;;;;;;2.60;2.40;;;18.50;94.00;;;;;;5035193;28;20429;-69
2022/04/13 07:04:08;;;;;;;2.70;2.50;;;18.60;93.50;;;;;;5034624;28;20844;-69
2022/04/13 07:06:35;;;;;;;3.00;2.70;;;18.80;93.00;;;;;;5033132;28;20446;-68
2022/04/13 07:09:09;;;;;;;2.17;2.07;;;19.10;92.00;;;;;;5034977;28;20468;-69
2022/04/13 07:11:35;;;;;;;3.20;2.90;;;19.30;91.80;;;;;;5034970;28;20414;-69
2022/04/13 07:14:11;;;;;;;2.37;2.17;;;19.50;91.30;;;;;;5034572;28;20461;-69
2022/04/13 07:16:47;;;;;;;4.07;2.60;;;19.70;91.00;;;;;;5034659;28;20617;-68
2022/04/13 07:19:24;;;;;;;3.10;2.90;;;19.90;91.10;;;;;;5028663;28;20760;-69
2022/04/13 07:21:49;;;;;;;3.40;3.10;;;20.30;90.50;;;;;;5033948;28;20420;-68
2022/04/13 07:24:16;;;;;;;3.10;2.90;;;20.50;90.00;;;;;;5034216;28;20471;-68
2022/04/13 07:26:41;;;;;;;5.27;3.27;;;20.90;89.60;;;;;;5034439;28;20202;-69
2022/04/13 07:29:08;;;;;;;3.20;2.90;;;21.00;89.10;;;;;;5034653;28;20445;-68
2022/04/13 07:31:34;;;;;;;3.97;2.87;;;21.20;88.00;;;;;;5034484;28;20180;-69
2022/04/13 07:34:00;;;;;;;2.70;2.50;;;21.40;87.60;;;;;;5033883;28;20391;-69
2022/04/13 07:36:25;;;;;;;3.27;3.07;;;21.70;87.00;;;;;;5034274;28;20222;-69
2022/04/13 07:38:52;;;;;;;4.13;2.40;;;21.90;85.60;;;;;;5034098;28;20197;-69
2022/04/13 07:41:27;;;;;;;2.90;2.70;;;22.10;85.30;;;;;;5033993;28;20185;-69
2022/04/13 07:43:55;;;;;;;2.27;2.17;;;22.20;84.30;;;;;;5033618;28;20405;-69
2022/04/13 07:46:33;;;;;;;2.20;2.00;;;22.40;84.30;;;;;;5033455;28;20415;-69
2022/04/13 07:48:59;;;;;;;2.70;2.50;;;22.90;82.70;;;;;;5032675;28;20532;-69
2022/04/13 07:51:28;;;;;;;5.93;3.00;;;23.40;81.30;;;;;;5033702;28;20393;-68
2022/04/13 07:53:54;;;;;;;7.00;6.10;;;23.70;80.20;;;;;;5032927;28;20419;-69
2022/04/13 07:56:20;;;;;;;3.20;2.90;;;24.20;79.30;;;;;;5033893;28;20433;-68
2022/04/13 07:58:45;;;;;;;3.37;3.10;;;24.70;77.40;;;;;;5033652;28;20641;-69
2022/04/13 08:01:11;;;;;;;3.50;3.10;;;25.10;75.90;;;;;;5033934;28;20625;-68
2022/04/13 08:03:36;;;;;;;4.03;2.87;;;25.40;73.40;;;;;;5032977;28;20194;-68
2022/04/13 08:06:03;;;;;;;3.20;3.00;;;25.70;73.40;;;;;;5031868;28;20195;-71
2022/04/13 08:08:28;;;;;;;6.80;3.03;;;26.00;71.40;;;;;;5033259;28;20198;-69
2022/04/13 08:10:54;;;;;;;2.90;2.40;;;26.70;69.80;;;;;;5032764;28;20734;-68
2022/04/13 08:13:19;;;;;;;4.00;3.20;;;27.20;67.70;;;;;;5032726;28;20580;-68
2022/04/13 08:15:45;;;;;;;3.27;2.50;;;27.70;64.10;;;;;;5033503;28;20738;-69
2022/04/13 08:18:11;;;;;;;2.97;2.70;;;28.20;63.20;;;;;;5032710;28;20174;-70
2022/04/13 08:20:38;;;;;;;3.13;2.70;;;28.50;62.30;;;;;;5033073;28;20181;-68
2022/04/13 08:23:04;;;;;;;2.90;2.70;;;29.00;60.20;;;;;;5032871;28;20225;-70
2022/04/13 08:25:30;;;;;;;2.37;2.17;;;29.40;58.80;;;;;;5032194;28;20811;-69
2022/04/13 08:27:56;;;;;;;3.53;3.23;;;29.70;58.80;;;;;;5031484;28;20447;-69
2022/04/13 08:30:23;;;;;;;3.20;3.00;;;30.00;57.50;;;;;;5030633;28;20900;-69
2022/04/13 08:32:49;;;;;;;2.77;2.57;;;29.80;57.80;;;;;;5032069;28;20174;-70
2022/04/13 08:35:14;;;;;;;4.07;3.30;;;29.80;57.90;;;;;;5033005;28;20428;-69
2022/04/13 08:37:40;;;;;;;4.40;4.00;;;29.50;58.80;;;;;;5033193;28;20240;-69
2022/04/13 08:40:06;;;;;;;3.30;3.10;;;29.10;57.60;;;;;;5032634;28;20174;-69
2022/04/13 08:42:49;;;;;;;3.33;3.03;;;29.10;58.60;;;;;;5033048;28;20260;-69
2022/04/13 08:45:25;;;;;;;3.43;3.20;;;29.10;59.10;;;;;;5032881;28;20576;-69
2022/04/13 08:47:56;;;;;;;2.93;2.67;;;29.30;59.00;;;;;;5033188;28;20416;-68
2022/04/13 08:50:27;;;;;;;2.93;2.73;;;29.60;57.10;;;;;;5032810;28;20494;-69
2022/04/13 08:53:06;;;;;;;3.10;2.90;;;29.60;57.50;;;;;;5033023;28;20404;-69
2022/04/13 08:55:32;;;;;;;3.03;2.83;;;29.60;56.20;;;;;;5033146;28;20537;-70
2022/04/13 08:58:29;;;;;;;2.67;2.47;;;29.60;56.30;;;;;;5032807;28;20506;-69
2022/04/13 09:00:59;;;;;;;3.20;2.63;;;29.40;55.90;;;;;;5033123;28;20636;-70
2022/04/13 09:03:43;;;;;;;2.40;2.30;;;29.40;55.00;;;;;;5036612;28;20463;-70
2022/04/13 09:06:10;;;;;;;3.47;3.17;;;29.50;53.80;;;;;;5035462;28;20423;-68
2022/04/13 09:08:45;;;;;;;3.00;2.70;;;29.50;53.50;;;;;;5036979;28;20412;-68
2022/04/13 09:11:12;;;;;;;2.33;2.23;;;29.30;54.50;;;;;;5037027;28;20383;-69
2022/04/13 09:13:38;;;;;;;5.13;3.33;;;29.00;54.90;;;;;;5036626;28;20387;-67
2022/04/13 09:16:04;;;;;;;3.10;2.80;;;29.00;54.90;;;;;;5036380;28;20518;-68
2022/04/13 09:18:30;;;;;;;5.50;2.60;;;29.00;54.40;;;;;;5036499;28;20456;-69
2022/04/13 09:20:58;;;;;;;4.10;2.30;;;29.00;55.50;;;;;;5036810;28;20749;-69
2022/04/13 09:23:25;;;;;;;2.67;2.47;;;29.00;55.10;;;;;;5036273;28;20464;-70
2022/04/13 09:25:54;;;;;;;2.70;2.13;;;29.00;56.00;;;;;;5036334;28;20428;-69
2022/04/13 09:28:20;;;;;;;2.30;2.20;;;29.20;55.10;;;;;;5036852;28;20437;-69
2022/04/13 09:30:46;;;;;;;2.23;2.03;;;29.50;55.70;;;;;;5036537;28;20417;-72
2022/04/13 09:33:12;;;;;;;5.20;3.80;;;29.80;53.80;;;;;;5035595;28;20421;-72
2022/04/13 09:35:37;;;;;;;2.53;2.30;;;29.40;53.70;;;;;;5036253;28;20197;-70
2022/04/13 09:38:05;;;;;;;2.40;2.20;;;29.30;52.60;;;;;;5036404;28;20273;-70
2022/04/13 09:40:41;;;;;;;2.57;2.37;;;29.20;53.20;;;;;;5036438;28;20174;-72
2022/04/13 09:43:14;;;;;;;3.10;2.47;;;29.40;53.80;;;;;;5035973;28;20503;-74
2022/04/13 09:45:45;;;;;;;2.73;2.43;;;29.90;54.60;;;;;;5035986;28;20387;-69
2022/04/13 09:48:12;;;;;;;4.47;2.80;;;30.40;53.20;;;;;;5036341;28;20466;-73
2022/04/13 09:50:39;;;;;;;3.87;3.50;;;30.70;52.30;;;;;;5036469;28;20388;-73
2022/04/13 09:53:06;;;;;;;2.47;2.27;;;30.90;52.50;;;;;;5034566;28;20750;-74
2022/04/13 09:55:48;;;;;;;2.33;2.20;;;31.10;52.30;;;;;;5035045;28;20496;-75
2022/04/13 09:58:17;;;;;;;2.30;2.20;;;31.10;52.20;;;;;;5034279;28;20793;-73
2022/04/13 10:00:44;;;;;;;2.60;2.40;;;31.20;52.50;;;;;;5035336;28;20384;-73
2022/04/13 10:03:15;;;;;;;2.67;2.47;;;31.20;51.70;;;;;;5034862;28;20777;-73
2022/04/13 10:05:43;;;;;;;3.70;3.40;;;30.60;51.70;;;;;;5033968;28;20524;-74
2022/04/13 10:08:11;;;;;;;2.60;2.40;;;30.60;51.10;;;;;;5035392;28;20404;-73
2022/04/13 10:10:45;;;;;;;2.20;2.10;;;30.50;52.10;;;;;;5035624;28;20416;-73
2022/04/13 10:13:12;;;;;;;5.03;2.30;;;30.30;53.30;;;;;;5035828;28;20397;-73
2022/04/13 10:15:38;;;;;;;3.03;2.70;;;30.30;53.60;;;;;;5035871;28;20440;-73
2022/04/13 10:18:05;;;;;;;2.30;2.10;;;30.30;53.90;;;;;;5035930;28;20958;-74
2022/04/13 10:20:45;;;;;;;2.23;2.03;;;30.00;52.70;;;;;;5035580;28;20201;-73
2022/04/13 10:23:11;;;;;;;1.93;1.83;;;29.90;53.10;;;;;;5035745;28;20388;-73
2022/04/13 10:25:37;;;;;;;4.20;2.50;;;29.90;54.10;;;;;;5035527;28;20415;-73
2022/04/13 10:28:03;;;;;;;1.97;1.87;;;30.10;53.20;;;;;;5016386;28;20932;-72
2022/04/13 10:30:31;;;;;;;3.17;2.83;;;30.00;52.50;;;;;;5016651;28;20178;-73
2022/04/13 10:33:02;;;;;;;2.03;1.93;;;29.70;53.20;;;;;;5016622;28;20433;-72
2022/04/13 10:35:30;;;;;;;8.40;2.30;;;30.00;54.50;;;;;;5016173;28;20422;-73
2022/04/13 10:37:56;;;;;;;2.17;2.00;;;30.00;53.70;;;;;;5015825;28;20451;-73
2022/04/13 10:40:24;;;;;;;2.70;2.50;;;30.10;54.40;;;;;;5018634;28;20421;-73
2022/04/13 10:42:52;;;;;;;2.63;2.43;;;30.10;53.60;;;;;;5036123;28;20401;-72
2022/04/13 10:45:18;;;;;;;2.80;2.27;;;30.20;52.60;;;;;;5034334;28;20890;-73
2022/04/13 10:47:54;;;;;;;2.70;2.30;;;30.20;51.90;;;;;;5034865;28;20405;-71
2022/04/13 10:50:30;;;;;;;2.67;1.70;;;30.30;51.50;;;;;;5036529;28;20450;-73
2022/04/13 10:53:23;;;;;;;2.20;2.10;;;30.10;50.70;;;;;;5035293;28;20462;-72
2022/04/13 10:56:01;;;;;;;2.90;1.93;;;29.80;51.20;;;;;;5030480;28;20455;-71
2022/04/13 10:58:59;;;;;;;2.57;1.90;;;29.50;52.10;;;;;;5035370;28;20556;-73
2022/04/13 11:01:30;;;;;;;3.10;2.80;;;29.50;52.90;;;;;;5014149;28;20388;-73
2022/04/13 11:03:57;;;;;;;2.20;2.00;;;29.40;52.20;;;;;;5035000;28;20403;-73
2022/04/13 11:06:24;;;;;;;3.10;2.20;;;29.40;51.80;;;;;;5034856;28;20395;-75
2022/04/13 11:09:13;;;;;;;1.90;1.80;;;29.40;52.20;;;;;;5034748;28;20454;-73
2022/04/13 11:11:40;;;;;;;2.10;1.53;;;29.40;52.30;;;;;;5034633;28;20396;-74
2022/04/13 11:14:19;;;;;;;2.97;1.83;;;29.00;52.60;;;;;;5033654;28;20413;-73
2022/04/13 11:16:45;;;;;;;1.80;1.70;;;28.40;53.80;;;;;;5034698;28;20474;-73
2022/04/13 11:19:11;;;;;;;1.57;1.47;;;27.70;53.20;;;;;;5034618;28;20480;-74
2022/04/13 11:21:51;;;;;;;3.97;1.70;;;27.20;53.90;;;;;;5034020;28;20380;-76
2022/04/13 11:24:36;;;;;;;1.83;1.73;;;27.10;54.60;;;;;;5034117;28;20220;-72
2022/04/13 11:27:03;;;;;;;2.03;1.80;;;26.60;56.60;;;;;;5014704;28;20408;-70
2022/04/13 11:29:44;;;;;;;2.17;2.07;;;26.20;56.70;;;;;;5014413;28;20405;-73
2022/04/13 11:32:24;;;;;;;4.10;1.77;;;25.80;57.00;;;;;;5014632;28;20412;-71
2022/04/13 11:34:52;;;;;;;3.70;2.13;;;25.60;60.30;;;;;;5013660;28;20528;-70
2022/04/13 11:37:44;;;;;;;3.03;2.40;;;25.70;58.60;;;;;;5014403;28;20969;-71
2022/04/13 11:40:17;;;;;;;2.33;2.13;;;25.80;59.50;;;;;;5023627;28;20415;-71
2022/04/13 11:43:06;;;;;;;2.83;2.53;;;25.80;58.60;;;;;;5033972;28;20438;-68
2022/04/13 11:45:33;;;;;;;2.80;2.00;;;25.70;58.70;;;;;;4992545;28;20442;-69
2022/04/13 11:48:01;;;;;;;2.13;1.80;;;25.50;58.90;;;;;;4992788;28;21011;-68
2022/04/13 11:50:32;;;;;;;3.10;1.80;;;25.40;58.30;;;;;;4992776;28;20411;-72
2022/04/13 11:53:10;;;;;;;2.00;1.90;;;25.40;59.40;;;;;;4992379;28;20481;-69
2022/04/13 11:55:46;;;;;;;1.53;1.43;;;25.30;59.90;;;;;;4991928;28;20447;-69
2022/04/13 11:58:14;;;;;;;5.17;2.20;;;25.20;60.00;;;;;;4992472;28;20992;-75
2022/04/13 12:00:59;;;;;;;1.90;1.80;;;25.10;60.60;;;;;;5008914;28;20386;-75
2022/04/13 12:03:30;;;;;;;1.50;1.40;;;25.20;61.90;;;;;;4991669;28;20450;-72
2022/04/13 12:06:02;;;;;;;1.93;1.83;;;25.10;59.80;;;;;;4992214;28;20430;-77
2022/04/13 12:08:30;;;;;;;2.17;1.97;;;25.10;60.70;;;;;;4992347;28;20920;-79
2022/04/13 12:11:01;;;;;;;2.60;1.93;;;25.10;61.00;;;;;;4991807;28;20419;-72
2022/04/13 12:13:33;;;;;;;3.33;1.80;;;25.20;62.30;;;;;;4991908;28;20445;-72
2022/04/13 12:15:59;;;;;;;2.83;1.90;;;25.10;60.60;;;;;;4992318;28;20431;-73
2022/04/13 12:18:26;;;;;;;2.17;2.00;;;25.10;60.50;;;;;;4992331;28;20902;-70
2022/04/13 12:21:05;;;;;;;2.27;2.17;;;25.20;61.50;;;;;;4990755;28;20393;-72
2022/04/13 12:23:35;;;;;;;1.97;1.87;;;25.10;61.20;;;;;;5027290;28;20452;-71
2022/04/13 12:26:00;;;;;;;2.30;1.60;;;25.20;60.10;;;;;;5032166;28;20516;-71
2022/04/13 12:28:26;;;;;;;1.60;1.50;;;25.10;59.40;;;;;;5032635;28;20523;-71
2022/04/13 12:31:00;;;;;;;2.33;1.83;;;25.10;61.00;;;;;;5032180;28;20221;-70
2022/04/13 12:33:28;;;;;;;2.07;1.90;;;25.00;60.00;;;;;;5031702;28;20189;-72
2022/04/13 12:35:58;;;;;;;2.73;2.20;;;25.10;60.70;;;;;;5032034;28;20443;-73
2022/04/13 12:38:34;;;;;;;1.60;1.50;;;25.10;59.30;;;;;;5031111;28;20523;-71
2022/04/13 12:41:05;;;;;;;3.97;1.77;;;25.00;59.10;;;;;;5031453;28;20448;-74
2022/04/13 12:43:31;;;;;;;3.00;1.90;;;24.80;59.20;;;;;;5029784;28;20951;-73
2022/04/13 12:45:57;;;;;;;2.00;1.83;;;24.60;59.40;;;;;;5029957;28;20512;-72
2022/04/13 12:48:29;;;;;;;1.10;1.10;;;24.60;62.80;;;;;;5031129;28;20423;-71
2022/04/13 12:50:59;;;;;;;1.50;1.40;;;24.60;59.00;;;;;;5031978;28;20401;-72
2022/04/13 12:53:26;;;;;;;1.60;1.40;;;24.50;59.70;;;;;;5032643;28;20452;-73